Thursday, October 18, 2018, 9:46 AM EDT
Back to Local

KABE, Lehigh Valley International Airport

Location: Allentown, PA, United States Lat: 40.65
Local Time: 9:46 AM EDT (13:46 GMT) Lon: -75.45
Time Zone: US/Eastern Elev: 393 ft

Show me the last for .
Show Decoded

2018-10-18 08:51 METAR KABE 181251Z 33010KT 10SM OVC055 07/M03 A3036 RMK AO2 SLP282 T00671028 =
2018-10-18 07:51 METAR KABE 181151Z 34003KT 10SM BKN050 OVC060 06/M02 A3033 RMK AO2 SLP273
                 T00561022 10072 20050 53025 =
2018-10-18 06:51 METAR KABE 181051Z 28008KT 260V330 10SM BKN060 06/M03 A3030 RMK AO2 SLP263
                 T00561033 =
2018-10-18 05:51 METAR KABE 180951Z 30009KT 10SM CLR 05/M03 A3028 RMK AO2 SLP256 T00501028 =
2018-10-18 04:51 METAR KABE 180851Z 26006KT 10SM CLR 05/M02 A3026 RMK AO2 SLP247 T00501022 53013
                 =
2018-10-18 03:51 METAR KABE 180751Z 29006KT 10SM FEW070 06/M03 A3024 RMK AO2 SLP240 T00561028 =
2018-10-18 02:51 METAR KABE 180651Z 29007KT 10SM CLR 06/M03 A3023 RMK AO2 SLP237 T00611028 =
2018-10-18 01:51 METAR KABE 180551Z AUTO 30011G19KT 10SM BKN050 BKN060 07/M03 A3022 RMK AO2
                 SLP233 T00721028 10117 20061 51025 =
2018-10-18 00:51 METAR KABE 180451Z AUTO 29011G17KT 10SM CLR 08/M02 A3019 RMK AO2 SLP222
                 T00781022 401720039 =
2018-10-17 23:51 METAR KABE 180351Z AUTO 30007KT 10SM FEW045 08/M01 A3018 RMK AO2 SLP220
                 T00781006 =
2018-10-17 22:51 METAR KABE 180251Z AUTO 28011G15KT 10SM CLR 08/00 A3014 RMK AO2 SLP208 T00830000
                 52030 =
2018-10-17 21:51 METAR KABE 180151Z 29010G20KT 10SM CLR 10/M01 A3012 RMK AO2 PK WND 30026/0110
                 SLP200 T01001011 =
2018-10-17 20:51 METAR KABE 180051Z 30011G23KT 10SM SCT070 BKN085 11/00 A3008 RMK AO2 SLP187
                 T01110000 =
2018-10-17 19:51 METAR KABE 172351Z 29011KT 10SM BKN070 12/01 A3005 RMK AO2 PK WND 29026/2258
                 SLP178 T01170011 10172 20117 53037 =
2018-10-17 18:51 METAR KABE 172251Z 29015G25KT 10SM FEW090 12/01 A3002 RMK AO2 PK WND 30034/2155
                 SLP169 T01220006 =
2018-10-17 17:51 METAR KABE 172151Z 29019G25KT 10SM SCT085 14/02 A2997 RMK AO2 PK WND 29030/2116
                 SLP150 T01390017 =
2018-10-17 16:51 METAR KABE 172051Z 27017G35KT 10SM BKN070 OVC085 15/02 A2994 RMK AO2 PK WND
                 26035/2046 SLP141 T01500017 53010 =
2018-10-17 15:51 METAR KABE 171951Z 27015G29KT 10SM SCT070 17/02 A2992 RMK AO2 PK WND 27031/1940
                 SLP133 T01670022 =
2018-10-17 14:51 METAR KABE 171851Z 26014G22KT 10SM BKN065 OVC080 16/02 A2991 RMK AO2 PK WND
                 30031/1755 SLP131 T01560022 =
2018-10-17 13:51 METAR KABE 171751Z 27018G26KT 10SM BKN065 BKN075 16/04 A2991 RMK AO2 PK WND
                 24027/1717 SLP130 T01610039 10161 20050 58026 =
2018-10-17 12:51 METAR KABE 171651Z 24013KT 10SM CLR 16/04 A2993 RMK AO2 SLP137 T01560044 =
2018-10-17 11:51 METAR KABE 171551Z 25013KT 10SM CLR 14/04 A2998 RMK AO2 SLP152 T01390044 =
2018-10-17 10:51 METAR KABE 171451Z 26011KT 10SM CLR 13/04 A2999 RMK AO2 SLP157 T01330039 58005 =
2018-10-17 09:51 METAR KABE 171351Z 25012KT 10SM CLR 11/04 A3001 RMK AO2 SLP163 T01110039 =

Support USWX by starting your Amazon purchase here.